createdAt,value
2023-05-05T00:01:35.852Z,15.32
2023-05-05T00:04:02.747Z,14.07
2023-05-05T00:06:29.670Z,12.45
2023-05-05T00:08:56.457Z,13.10
2023-05-05T00:11:23.392Z,20.25
2023-05-05T00:13:51.529Z,13.05
2023-05-05T00:16:18.486Z,12.27
2023-05-05T00:18:47.411Z,11.85
2023-05-05T00:21:14.368Z,14.00
2023-05-05T00:23:41.205Z,17.58
2023-05-05T00:26:08.054Z,15.45
2023-05-05T00:28:34.937Z,18.08
2023-05-05T00:31:01.956Z,14.10
2023-05-05T00:33:28.925Z,12.60
2023-05-05T00:35:57.168Z,14.63
2023-05-05T00:38:24.123Z,17.45
2023-05-05T00:40:50.975Z,11.73
2023-05-05T00:43:17.797Z,16.73
2023-05-05T00:45:47.816Z,14.27
2023-05-05T00:48:17.129Z,23.05
2023-05-05T00:50:45.092Z,17.33
2023-05-05T00:53:13.880Z,13.05
2023-05-05T00:55:41.610Z,14.90
2023-05-05T00:58:10.023Z,13.25
2023-05-05T01:00:37.011Z,14.40
2023-05-05T01:03:05.215Z,16.85
2023-05-05T01:05:41.829Z,13.40
2023-05-05T01:08:26.737Z,17.10
2023-05-05T01:10:58.045Z,16.55
2023-05-05T01:13:32.601Z,15.07
2023-05-05T01:16:09.207Z,14.20
2023-05-05T01:18:44.232Z,15.43
2023-05-05T01:21:15.475Z,13.70
2023-05-05T01:24:15.580Z,13.43
2023-05-05T01:26:59.239Z,17.10
2023-05-05T01:29:45.181Z,19.90
2023-05-05T01:32:15.959Z,16.15
2023-05-05T01:34:53.199Z,13.60
2023-05-05T01:37:27.112Z,14.63
2023-05-05T01:42:24.216Z,16.25
2023-05-05T01:44:53.190Z,16.63
2023-05-05T01:47:23.998Z,15.85
2023-05-05T01:49:52.420Z,19.45
2023-05-05T01:52:19.984Z,16.65
2023-05-05T01:54:48.039Z,24.40
2023-05-05T01:57:16.628Z,18.85
2023-05-05T01:59:43.564Z,22.15
2023-05-05T02:02:13.110Z,25.75
2023-05-05T02:04:44.415Z,20.38
2023-05-05T02:07:13.219Z,21.65
2023-05-05T02:09:42.656Z,20.05
2023-05-05T02:12:10.618Z,18.55
2023-05-05T02:14:39.533Z,20.15
2023-05-05T02:17:06.964Z,16.38
2023-05-05T02:19:38.973Z,29.85
2023-05-05T02:22:07.434Z,20.33
2023-05-05T02:24:34.699Z,21.70
2023-05-05T02:27:06.290Z,18.08
2023-05-05T02:29:35.799Z,17.25
2023-05-05T02:32:06.133Z,24.13
2023-05-05T02:34:36.877Z,23.10
2023-05-05T02:37:07.286Z,23.00
2023-05-05T02:39:41.865Z,20.48
2023-05-05T02:42:11.028Z,21.27
2023-05-05T02:44:41.854Z,20.55
2023-05-05T02:47:08.955Z,20.52
2023-05-05T02:49:35.784Z,17.25
2023-05-05T02:52:02.804Z,20.02
2023-05-05T02:54:32.679Z,18.45
2023-05-05T02:57:00.621Z,19.60
2023-05-05T02:59:36.714Z,23.70
2023-05-05T03:02:15.785Z,19.55
2023-05-05T03:04:46.377Z,19.40
2023-05-05T03:07:16.056Z,19.25
2023-05-05T03:09:50.965Z,21.88
2023-05-05T03:12:22.408Z,20.52
2023-05-05T03:14:54.306Z,25.95
2023-05-05T03:17:22.900Z,22.63
2023-05-05T03:19:50.697Z,18.23
2023-05-05T03:22:18.036Z,21.63
2023-05-05T03:24:50.247Z,23.88
2023-05-05T03:27:17.042Z,22.65
2023-05-05T03:29:43.882Z,20.80
2023-05-05T03:32:10.799Z,21.15
2023-05-05T03:34:37.864Z,21.48
2023-05-05T03:37:04.745Z,24.98
2023-05-05T03:39:31.816Z,26.10
2023-05-05T03:42:00.055Z,22.77
2023-05-05T03:44:27.055Z,18.05
2023-05-05T03:46:53.837Z,23.92
2023-05-05T03:49:20.633Z,22.60
2023-05-05T03:51:47.660Z,20.48
2023-05-05T03:54:14.662Z,30.75
2023-05-05T03:56:41.500Z,19.80
2023-05-05T03:59:10.115Z,20.30
2023-05-05T04:01:37.008Z,26.65
2023-05-05T04:04:04.242Z,21.60
2023-05-05T04:06:32.155Z,21.65
2023-05-05T04:08:58.996Z,20.77
2023-05-05T04:11:26.334Z,25.83
2023-05-05T04:13:53.204Z,19.30
2023-05-05T04:16:21.568Z,23.80
2023-05-05T04:18:48.523Z,26.45
2023-05-05T04:21:15.429Z,28.85
2023-05-05T04:23:42.257Z,26.30
2023-05-05T04:26:09.023Z,34.70
2023-05-05T04:28:35.924Z,32.75
2023-05-05T04:31:05.298Z,30.58
2023-05-05T04:33:33.564Z,26.98
2023-05-05T04:36:00.482Z,31.23
2023-05-05T04:38:27.667Z,36.67
2023-05-05T04:40:54.564Z,36.97
2023-05-05T04:43:21.469Z,34.63
2023-05-05T04:45:55.116Z,41.50
2023-05-05T04:48:22.099Z,32.67
2023-05-05T04:50:51.466Z,29.63
2023-05-05T04:53:18.328Z,30.13
2023-05-05T04:55:45.173Z,27.52
2023-05-05T04:58:12.010Z,25.25
2023-05-05T05:00:38.886Z,23.15
2023-05-05T05:03:05.919Z,28.73
2023-05-05T05:05:32.930Z,27.88
2023-05-05T05:08:01.211Z,34.13
2023-05-05T05:10:28.749Z,28.48
2023-05-05T05:12:55.854Z,25.15
2023-05-05T05:15:22.816Z,25.77
2023-05-05T05:17:49.858Z,20.75
2023-05-05T05:20:16.777Z,22.23
2023-05-05T05:22:43.684Z,25.60
2023-05-05T05:25:11.952Z,23.90
2023-05-05T05:27:38.784Z,24.83
2023-05-05T05:30:06.814Z,30.08
2023-05-05T05:32:34.128Z,27.88
2023-05-05T05:35:01.292Z,22.55
2023-05-05T05:37:29.287Z,26.17
2023-05-05T05:39:57.095Z,23.88
2023-05-05T05:42:25.420Z,22.08
2023-05-05T05:44:52.273Z,32.17
2023-05-05T05:47:19.228Z,17.92
2023-05-05T05:49:46.245Z,17.20
2023-05-05T05:52:13.165Z,20.85
2023-05-05T05:54:40.034Z,22.27
2023-05-05T05:57:07.041Z,20.23
2023-05-05T05:59:35.318Z,24.83
2023-05-05T06:02:02.297Z,16.58
2023-05-05T06:04:29.308Z,18.98
2023-05-05T06:06:56.248Z,15.27
2023-05-05T06:09:23.161Z,17.30
2023-05-05T06:11:49.962Z,15.32
2023-05-05T06:14:18.152Z,31.77
2023-05-05T06:16:47.728Z,20.00
2023-05-05T06:19:14.624Z,16.30
2023-05-05T06:21:41.600Z,18.08
2023-05-05T06:24:08.482Z,23.33
2023-05-05T06:26:35.359Z,13.05
2023-05-05T06:29:02.222Z,13.25
2023-05-05T06:31:29.315Z,16.95
2023-05-05T06:33:57.605Z,15.93
2023-05-05T06:36:24.653Z,56.13
2023-05-05T06:38:51.655Z,24.35
2023-05-05T06:41:18.556Z,15.93
2023-05-05T06:43:45.661Z,20.13
2023-05-05T06:46:12.499Z,13.77
2023-05-05T06:48:39.530Z,22.13
2023-05-05T06:51:09.816Z,25.63
2023-05-05T06:53:36.674Z,21.92
2023-05-05T06:56:03.747Z,15.18
2023-05-05T06:58:31.656Z,14.18
2023-05-05T07:00:58.604Z,22.92
2023-05-05T07:03:26.867Z,16.73
2023-05-05T07:05:55.154Z,16.35
2023-05-05T07:08:23.369Z,12.63
2023-05-05T07:10:50.177Z,17.20
2023-05-05T07:13:17.514Z,18.58
2023-05-05T07:15:46.526Z,16.02
2023-05-05T07:18:13.580Z,15.80
2023-05-05T07:20:40.597Z,13.38
2023-05-05T07:23:07.618Z,21.52
2023-05-05T07:25:35.973Z,16.33
2023-05-05T07:28:03.113Z,19.15
2023-05-05T07:30:30.206Z,21.15
2023-05-05T07:32:57.250Z,15.98
2023-05-05T07:35:24.358Z,18.70
2023-05-05T07:37:54.110Z,16.30
2023-05-05T07:40:21.540Z,17.73
2023-05-05T07:42:52.567Z,13.50
2023-05-05T07:45:19.618Z,16.27
2023-05-05T07:47:46.595Z,14.30
2023-05-05T07:50:13.586Z,15.10
2023-05-05T07:55:10.599Z,12.23
2023-05-05T07:57:37.668Z,20.58
2023-05-05T08:00:07.493Z,20.85
2023-05-05T08:02:34.597Z,14.25
2023-05-05T08:05:01.461Z,15.40
2023-05-05T08:07:28.273Z,13.02
2023-05-05T08:09:55.290Z,12.52
2023-05-05T08:12:22.171Z,10.35
2023-05-05T08:14:49.086Z,13.00
2023-05-05T08:17:17.393Z,12.13
2023-05-05T08:19:44.208Z,13.88
2023-05-05T08:22:11.056Z,23.15
2023-05-05T08:24:37.932Z,12.43
2023-05-05T08:27:04.766Z,9.10
2023-05-05T08:29:31.555Z,12.45
2023-05-05T08:31:58.524Z,13.55
2023-05-05T08:34:26.850Z,10.73
2023-05-05T08:36:53.841Z,8.35
2023-05-05T08:39:20.686Z,10.15
2023-05-05T08:41:47.680Z,12.35
2023-05-05T08:44:14.612Z,10.73
2023-05-05T08:46:42.465Z,12.18
2023-05-05T08:49:16.092Z,9.70
2023-05-05T08:54:19.344Z,9.02
2023-05-05T08:59:14.695Z,11.27
2023-05-05T09:01:49.762Z,12.18
2023-05-05T09:04:19.051Z,13.63
2023-05-05T09:07:05.761Z,9.98
2023-05-05T09:09:40.402Z,10.65
2023-05-05T09:12:07.463Z,14.25
2023-05-05T09:14:46.510Z,16.48
2023-05-05T09:17:28.419Z,11.77
2023-05-05T09:20:16.375Z,10.57
2023-05-05T09:22:50.787Z,10.85
2023-05-05T09:25:23.172Z,8.43
2023-05-05T09:27:54.909Z,10.98
2023-05-05T09:30:36.098Z,10.35
2023-05-05T09:33:08.850Z,12.05
2023-05-05T09:36:05.204Z,13.73
2023-05-05T09:38:36.913Z,10.10
2023-05-05T09:41:09.006Z,13.27
2023-05-05T09:44:00.810Z,12.88
2023-05-05T09:46:31.191Z,11.13
2023-05-05T09:49:12.383Z,15.18
2023-05-05T09:51:40.484Z,17.65
2023-05-05T09:54:09.214Z,15.65
2023-05-05T09:56:42.824Z,18.67
2023-05-05T09:59:10.436Z,18.75
2023-05-05T10:01:37.930Z,18.60
2023-05-05T10:04:05.144Z,11.38
2023-05-05T10:06:42.989Z,12.63
2023-05-05T10:09:11.238Z,13.95
2023-05-05T10:11:39.621Z,13.27
2023-05-05T10:14:07.830Z,13.13
2023-05-05T10:16:36.198Z,16.45
2023-05-05T10:19:04.430Z,14.20
2023-05-05T10:21:37.446Z,11.43
2023-05-05T10:24:09.450Z,15.02
2023-05-05T10:26:40.862Z,13.95
2023-05-05T10:29:13.586Z,11.82
2023-05-05T10:31:47.158Z,12.00
2023-05-05T10:36:45.536Z,9.20
2023-05-05T10:39:15.689Z,15.82
2023-05-05T10:41:44.729Z,7.97
2023-05-05T10:44:12.272Z,12.30
2023-05-05T10:46:39.953Z,6.55
2023-05-05T10:49:15.548Z,10.85
2023-05-05T10:51:50.025Z,18.38
2023-05-05T10:54:24.757Z,11.00
2023-05-05T10:56:54.724Z,18.88
2023-05-05T10:59:41.503Z,10.00
2023-05-05T11:02:27.315Z,9.13
2023-05-05T11:05:14.444Z,17.48
2023-05-05T11:07:42.012Z,12.40
2023-05-05T11:10:10.696Z,10.55
2023-05-05T11:13:15.359Z,10.05
2023-05-05T11:15:43.699Z,11.50
2023-05-05T11:18:34.018Z,9.35
2023-05-05T11:21:15.545Z,9.38
2023-05-05T11:23:47.545Z,12.68
2023-05-05T11:26:15.698Z,11.18
2023-05-05T11:29:02.611Z,7.63
2023-05-05T11:31:31.839Z,10.63
2023-05-05T11:34:25.003Z,8.07
2023-05-05T11:36:53.131Z,10.65
2023-05-05T11:39:25.311Z,9.50
2023-05-05T11:42:17.323Z,9.70
2023-05-05T11:44:44.300Z,8.85
2023-05-05T11:47:31.814Z,13.98
2023-05-05T11:49:59.433Z,12.73
2023-05-05T11:52:27.336Z,10.02
2023-05-05T11:54:59.773Z,7.25
2023-05-05T11:57:30.104Z,9.80
2023-05-05T12:00:00.542Z,5.07
2023-05-05T12:02:29.540Z,9.68
2023-05-05T12:04:59.173Z,7.05
2023-05-05T12:07:27.413Z,10.57
2023-05-05T12:09:55.500Z,8.88
2023-05-05T12:12:34.565Z,6.35
2023-05-05T12:15:01.507Z,5.65
2023-05-05T12:17:40.161Z,4.43
2023-05-05T12:20:10.590Z,10.15
2023-05-05T12:22:38.260Z,7.78
2023-05-05T12:25:07.045Z,12.63
2023-05-05T12:27:35.458Z,7.32
2023-05-05T12:30:14.510Z,10.02
2023-05-05T12:32:41.842Z,9.95
2023-05-05T12:35:11.209Z,4.43
2023-05-05T12:41:46.333Z,6.72
2023-05-05T12:45:59.757Z,8.02
2023-05-05T12:48:26.702Z,4.63
2023-05-05T12:51:43.552Z,12.38
2023-05-05T12:54:19.872Z,3.50
2023-05-05T12:56:47.732Z,5.15
2023-05-05T12:59:29.620Z,7.45
2023-05-05T13:01:58.468Z,6.13
2023-05-05T13:04:27.638Z,4.43
2023-05-05T13:07:11.875Z,4.32
2023-05-05T13:09:40.571Z,3.00
2023-05-05T13:12:12.442Z,3.20
2023-05-05T13:14:39.596Z,10.35
2023-05-05T13:17:06.898Z,4.07
2023-05-05T13:19:45.614Z,2.63
2023-05-05T13:22:16.007Z,5.93
2023-05-05T13:24:51.815Z,4.22
2023-05-05T13:27:20.094Z,3.45
2023-05-05T13:29:46.882Z,3.83
2023-05-05T13:32:13.753Z,2.30
2023-05-05T13:34:41.546Z,2.42
2023-05-05T13:37:08.813Z,3.58
2023-05-05T13:39:37.022Z,4.70
2023-05-05T13:42:05.587Z,1.75
2023-05-05T13:44:32.581Z,2.85
2023-05-05T13:46:59.573Z,1.42
2023-05-05T13:49:27.216Z,1.80
2023-05-05T13:51:55.228Z,4.47
2023-05-05T13:54:22.149Z,2.03
2023-05-05T13:56:49.074Z,1.77
2023-05-05T13:59:17.438Z,2.88
2023-05-05T14:01:44.224Z,3.75
2023-05-05T14:04:11.266Z,4.60
2023-05-05T14:06:38.211Z,2.00
2023-05-05T14:09:08.051Z,2.38
2023-05-05T14:11:35.054Z,2.38
2023-05-05T14:14:01.950Z,3.92
2023-05-05T14:16:30.389Z,3.38
2023-05-05T14:18:57.301Z,5.03
2023-05-05T14:21:24.225Z,7.15
2023-05-05T14:23:51.088Z,3.65
2023-05-05T14:26:17.994Z,10.73
2023-05-05T14:28:46.749Z,3.13
2023-05-05T14:31:15.259Z,6.18
2023-05-05T14:33:43.421Z,4.03
2023-05-05T14:36:10.329Z,4.07
2023-05-05T14:38:38.942Z,5.95
2023-05-05T14:41:05.975Z,8.93
2023-05-05T14:43:42.214Z,2.85
2023-05-05T14:46:26.344Z,3.50
2023-05-05T14:48:54.690Z,5.55
2023-05-05T14:54:38.290Z,7.05
2023-05-05T14:57:06.771Z,2.45
2023-05-05T14:59:33.684Z,2.83
2023-05-05T15:02:25.742Z,7.55
2023-05-05T15:04:54.048Z,3.13
2023-05-05T15:07:33.465Z,4.30
2023-05-05T15:10:00.363Z,3.70
2023-05-05T15:16:21.647Z,9.15
2023-05-05T15:18:54.124Z,5.50
2023-05-05T15:21:22.394Z,4.22
2023-05-05T15:23:49.212Z,5.22
2023-05-05T15:26:16.097Z,6.20
2023-05-05T15:28:43.007Z,4.85
2023-05-05T15:31:10.166Z,3.97
2023-05-05T15:33:37.106Z,3.60
2023-05-05T15:36:04.207Z,2.92
2023-05-05T15:39:01.153Z,3.85
2023-05-05T15:46:41.999Z,5.63
2023-05-05T15:49:10.744Z,3.60
2023-05-05T15:52:50.082Z,7.72
2023-05-05T15:55:39.224Z,5.07
2023-05-05T15:58:06.044Z,5.15
2023-05-05T16:01:04.470Z,5.82
2023-05-05T16:06:32.454Z,2.80
2023-05-05T16:08:59.378Z,4.40
2023-05-05T16:11:38.029Z,3.47
2023-05-05T16:14:06.259Z,2.60
2023-05-05T16:16:33.127Z,3.10
2023-05-05T16:19:29.661Z,3.10
2023-05-05T16:22:07.768Z,1.90
2023-05-05T16:25:19.386Z,2.90
2023-05-05T16:35:21.074Z,2.85
2023-05-05T16:37:54.326Z,3.67
2023-05-05T16:40:31.441Z,4.43
2023-05-05T16:43:07.659Z,3.58
2023-05-05T16:48:34.610Z,4.97
2023-05-05T16:51:25.733Z,7.65
2023-05-05T17:01:35.747Z,4.50
2023-05-05T17:04:02.895Z,1.90
2023-05-05T17:06:32.010Z,2.67
2023-05-05T17:08:59.197Z,2.47
2023-05-05T17:11:26.714Z,3.80
2023-05-05T17:13:53.792Z,3.58
2023-05-05T17:16:20.859Z,2.10
2023-05-05T17:18:49.209Z,2.97
2023-05-05T17:21:16.089Z,3.45
2023-05-05T17:23:42.932Z,3.42
2023-05-05T17:26:11.994Z,3.00
2023-05-05T17:28:38.821Z,3.40
2023-05-05T17:31:06.105Z,5.68
2023-05-05T17:33:32.947Z,11.20
2023-05-05T17:36:01.315Z,5.15
2023-05-05T17:38:28.354Z,2.90
2023-05-05T17:40:55.174Z,5.90
2023-05-05T17:43:22.197Z,4.90
2023-05-05T17:45:49.171Z,4.40
2023-05-05T17:48:16.258Z,4.38
2023-05-05T17:50:43.612Z,6.35
2023-05-05T17:53:12.581Z,4.55
2023-05-05T17:55:39.576Z,3.63
2023-05-05T17:58:06.428Z,5.43
2023-05-05T18:00:33.310Z,4.35
2023-05-05T18:03:01.267Z,7.38
2023-05-05T18:05:28.239Z,5.45
2023-05-05T18:07:55.096Z,5.32
2023-05-05T18:10:23.338Z,3.70
2023-05-05T18:12:50.336Z,3.45
2023-05-05T18:15:17.168Z,4.22
2023-05-05T18:17:44.548Z,3.63
2023-05-05T18:20:11.980Z,4.10
2023-05-05T18:22:38.953Z,4.13
2023-05-05T18:25:07.973Z,4.90
2023-05-05T18:27:36.928Z,3.67
2023-05-05T18:30:04.888Z,3.92
2023-05-05T18:32:31.894Z,3.53
2023-05-05T18:34:58.866Z,1.70
2023-05-05T18:37:25.754Z,4.75
2023-05-05T18:39:52.624Z,8.02
2023-05-05T18:42:19.477Z,2.60
2023-05-05T18:44:47.793Z,2.85
2023-05-05T18:47:14.596Z,4.35
2023-05-05T18:49:41.443Z,3.70
2023-05-05T18:52:08.294Z,4.10
2023-05-05T18:54:37.473Z,3.55
2023-05-05T18:57:04.752Z,3.42
2023-05-05T18:59:31.781Z,2.75
2023-05-05T19:02:00.134Z,5.07
2023-05-05T19:04:31.326Z,2.28
2023-05-05T19:06:58.821Z,3.10
2023-05-05T19:09:26.137Z,4.68
2023-05-05T19:11:53.034Z,6.85
2023-05-05T19:14:19.974Z,2.10
2023-05-05T19:16:47.070Z,8.30
2023-05-05T19:19:15.363Z,8.43
2023-05-05T19:21:42.201Z,4.18
2023-05-05T19:24:09.745Z,8.10
2023-05-05T19:26:36.693Z,12.50
2023-05-05T19:29:03.678Z,4.05
2023-05-05T19:31:31.382Z,4.60
2023-05-05T19:34:00.752Z,3.38
2023-05-05T19:36:31.687Z,6.95
2023-05-05T19:39:00.600Z,7.50
2023-05-05T19:41:27.496Z,9.85
2023-05-05T19:43:54.383Z,6.30
2023-05-05T19:46:21.320Z,4.82
2023-05-05T19:48:48.724Z,6.00
2023-05-05T19:51:15.638Z,9.93
2023-05-05T19:53:43.996Z,7.72
2023-05-05T19:56:11.607Z,6.55
2023-05-05T19:58:53.751Z,4.03
2023-05-05T20:01:20.785Z,4.47
2023-05-05T20:03:47.802Z,13.75
2023-05-05T20:06:14.803Z,4.30
2023-05-05T20:08:43.112Z,6.85
2023-05-05T20:11:10.046Z,7.97
2023-05-05T20:13:38.242Z,5.22
2023-05-05T20:16:06.069Z,6.32
2023-05-05T20:18:33.237Z,9.00
2023-05-05T20:21:00.414Z,35.88
2023-05-05T20:23:27.717Z,4.38
2023-05-05T20:25:56.807Z,5.45
2023-05-05T20:28:23.968Z,4.00
2023-05-05T20:30:51.060Z,5.85
2023-05-05T20:33:18.001Z,8.65
2023-05-05T20:35:44.917Z,15.05
2023-05-05T20:38:11.846Z,5.53
2023-05-05T20:40:38.883Z,9.55
2023-05-05T20:43:07.307Z,9.50
2023-05-05T20:45:34.440Z,6.28
2023-05-05T20:48:01.832Z,10.65
2023-05-05T20:50:28.788Z,11.68
2023-05-05T20:52:55.826Z,12.95
2023-05-05T20:55:22.925Z,9.55
2023-05-05T20:57:49.778Z,9.68
2023-05-05T21:00:24.102Z,6.00
2023-05-05T21:02:51.011Z,6.55
2023-05-05T21:05:18.238Z,5.82
2023-05-05T21:07:45.341Z,5.18
2023-05-05T21:10:12.438Z,5.75
2023-05-05T21:12:40.498Z,7.03
2023-05-05T21:15:08.617Z,9.13
2023-05-05T21:17:37.097Z,9.60
2023-05-05T21:20:04.499Z,7.97
2023-05-05T21:22:31.456Z,9.02
2023-05-05T21:25:11.765Z,14.60
2023-05-05T21:27:38.667Z,14.07
2023-05-05T21:30:09.407Z,10.95
2023-05-05T21:32:39.434Z,6.85
2023-05-05T21:35:07.997Z,7.85
2023-05-05T21:37:36.666Z,10.45
2023-05-05T21:40:03.878Z,8.85
2023-05-05T21:42:30.965Z,8.98
2023-05-05T21:44:57.751Z,9.68
2023-05-05T21:47:24.948Z,7.45
2023-05-05T21:49:53.162Z,13.95
2023-05-05T21:52:20.098Z,12.63
2023-05-05T21:54:46.955Z,15.25
2023-05-05T21:57:13.817Z,11.00
2023-05-05T21:59:41.352Z,6.60
2023-05-05T22:02:08.185Z,11.27
2023-05-05T22:04:35.090Z,9.88
2023-05-05T22:07:03.324Z,12.45
2023-05-05T22:09:30.278Z,10.98
2023-05-05T22:11:57.510Z,9.32
2023-05-05T22:14:24.460Z,14.38
2023-05-05T22:16:51.398Z,15.75
2023-05-05T22:19:18.221Z,8.35
2023-05-05T22:21:45.090Z,10.50
2023-05-05T22:24:13.388Z,13.35
2023-05-05T22:26:43.364Z,7.38
2023-05-05T22:29:10.677Z,10.15
2023-05-05T22:31:37.799Z,15.35
2023-05-05T22:34:04.860Z,8.88
2023-05-05T22:36:31.838Z,6.03
2023-05-05T22:38:59.079Z,12.20
2023-05-05T22:41:27.296Z,11.95
2023-05-05T22:43:54.190Z,8.13
2023-05-05T22:46:21.062Z,13.90
2023-05-05T22:48:48.001Z,12.57
2023-05-05T22:51:14.856Z,9.02
2023-05-05T22:53:41.830Z,11.40
2023-05-05T22:56:08.772Z,8.90
2023-05-05T22:58:37.044Z,17.35
2023-05-05T23:01:04.200Z,7.13
2023-05-05T23:03:31.133Z,8.32
2023-05-05T23:05:57.999Z,7.93
2023-05-05T23:08:24.829Z,11.35
2023-05-05T23:10:51.695Z,8.43
2023-05-05T23:13:18.551Z,9.05
2023-05-05T23:15:46.926Z,8.02
2023-05-05T23:18:13.779Z,9.27
2023-05-05T23:20:40.793Z,10.55
2023-05-05T23:23:07.712Z,12.80
2023-05-05T23:25:34.616Z,8.65
2023-05-05T23:28:01.551Z,11.30
2023-05-05T23:30:28.662Z,9.95
2023-05-05T23:32:58.258Z,27.80
2023-05-05T23:35:26.540Z,8.07
2023-05-05T23:37:53.368Z,12.55
2023-05-05T23:40:20.404Z,17.40
2023-05-05T23:42:47.205Z,9.68
2023-05-05T23:45:14.070Z,14.50
2023-05-05T23:47:40.937Z,12.55
2023-05-05T23:50:10.036Z,10.02
2023-05-05T23:52:36.910Z,12.40
2023-05-05T23:55:04.196Z,10.70
2023-05-05T23:57:31.090Z,8.80
2023-05-05T23:59:58.370Z,9.95
